Time;durP1;ratioP1;P1;durP2;ratioP2;P2;SDS_P1;SDS_P2;PMS_P1;PMS_P2;Temp;Humidity;BMP_temperature;BMP_pressure;BME280_temperature;BME280_humidity;BME280_pressure;Samples;Min_cycle;Max_cycle;Signal;HPM_P1;HPM_P2
2023/08/06 00:00:17;;;;;;;30.48;23.90;;;21.50;99.90;;;;;;5049466;28;20094;-80
2023/08/06 00:02:43;;;;;;;27.67;23.02;;;21.50;99.90;;;;;;5046095;28;20037;-79
2023/08/06 00:05:08;;;;;;;26.27;20.33;;;21.50;99.90;;;;;;5028969;28;20028;-79
2023/08/06 00:07:34;;;;;;;26.58;21.50;;;21.50;99.90;;;;;;5029086;28;20036;-80
2023/08/06 00:10:00;;;;;;;35.65;25.27;;;21.50;99.90;;;;;;5035867;28;20055;-79
2023/08/06 00:12:25;;;;;;;31.33;24.45;;;21.50;99.90;;;;;;5041442;28;20079;-79
2023/08/06 00:14:52;;;;;;;25.98;20.77;;;21.50;99.90;;;;;;5033561;28;20030;-79
2023/08/06 00:17:18;;;;;;;23.10;19.33;;;21.40;99.90;;;;;;5032188;28;20472;-78
2023/08/06 00:19:44;;;;;;;22.73;19.85;;;21.50;99.90;;;;;;5032290;28;20501;-79
2023/08/06 00:22:10;;;;;;;25.48;19.98;;;21.50;99.90;;;;;;5031831;28;20025;-79
2023/08/06 00:24:36;;;;;;;24.65;20.75;;;21.50;99.90;;;;;;5033357;28;20052;-79
2023/08/06 00:27:02;;;;;;;23.65;18.67;;;21.50;99.90;;;;;;5032061;28;20060;-79
2023/08/06 00:29:28;;;;;;;20.92;18.63;;;21.50;99.90;;;;;;5033353;28;20020;-80
2023/08/06 00:31:54;;;;;;;22.85;20.10;;;21.50;99.90;;;;;;5033245;28;20116;-82
2023/08/06 00:34:19;;;;;;;24.00;19.40;;;21.50;99.90;;;;;;5032194;28;20026;-80
2023/08/06 00:36:45;;;;;;;25.50;21.25;;;21.50;99.90;;;;;;5033188;28;20032;-80
2023/08/06 00:39:11;;;;;;;23.95;19.30;;;21.60;99.90;;;;;;5033613;28;20022;-80
2023/08/06 00:41:37;;;;;;;33.38;20.42;;;21.60;99.90;;;;;;5031638;28;20124;-80
2023/08/06 00:44:03;;;;;;;24.10;20.40;;;21.60;99.90;;;;;;5031783;28;20033;-80
2023/08/06 00:46:30;;;;;;;32.38;23.60;;;21.60;99.90;;;;;;5032869;28;20026;-80
2023/08/06 00:48:56;;;;;;;28.33;18.92;;;21.60;99.90;;;;;;5033131;28;20098;-80
2023/08/06 00:51:23;;;;;;;24.50;17.55;;;21.60;99.90;;;;;;5032477;28;20123;-80
2023/08/06 00:53:50;;;;;;;21.52;15.45;;;21.50;99.90;;;;;;5033037;28;20030;-80
2023/08/06 00:56:16;;;;;;;15.13;13.63;;;21.50;99.90;;;;;;5032333;28;20682;-80
2023/08/06 00:58:42;;;;;;;18.80;13.68;;;21.50;99.90;;;;;;5032761;28;20030;-80
2023/08/06 01:01:08;;;;;;;23.13;15.65;;;21.40;99.90;;;;;;5032639;28;20404;-81
2023/08/06 01:03:33;;;;;;;16.85;14.27;;;21.40;99.90;;;;;;5032341;28;20040;-79
2023/08/06 01:06:00;;;;;;;18.77;16.58;;;21.40;99.90;;;;;;5032222;28;20033;-80
2023/08/06 01:08:25;;;;;;;19.85;17.58;;;21.40;99.90;;;;;;5032465;28;20098;-79
2023/08/06 01:11:02;;;;;;;17.58;15.60;;;21.40;99.90;;;;;;5034558;28;20079;-80
2023/08/06 01:13:35;;;;;;;19.73;14.57;;;21.40;99.90;;;;;;5051133;28;20584;-84
2023/08/06 01:16:03;;;;;;;18.45;15.60;;;21.40;99.90;;;;;;5045437;28;20033;-82
2023/08/06 01:18:29;;;;;;;21.85;16.17;;;21.40;99.90;;;;;;5041977;28;20119;-81
2023/08/06 01:20:54;;;;;;;23.60;16.85;;;21.40;99.90;;;;;;5050708;28;20104;-81
2023/08/06 01:23:20;;;;;;;24.17;17.83;;;21.40;99.90;;;;;;5035266;28;20525;-81
2023/08/06 01:26:02;;;;;;;24.92;17.90;;;21.40;99.90;;;;;;5032521;28;20112;-81
2023/08/06 01:29:06;;;;;;;24.30;19.15;;;21.40;99.90;;;;;;5033529;28;20026;-81
2023/08/06 01:31:35;;;;;;;18.38;16.40;;;21.40;99.90;;;;;;5032107;28;20122;-81
2023/08/06 01:34:02;;;;;;;19.48;14.43;;;21.30;99.90;;;;;;5031252;28;20032;-81
2023/08/06 01:36:30;;;;;;;24.48;16.60;;;21.30;99.90;;;;;;5031625;28;20144;-82
2023/08/06 01:38:57;;;;;;;15.80;13.50;;;21.30;99.90;;;;;;5032463;28;20032;-81
2023/08/06 01:41:22;;;;;;;24.33;15.60;;;21.20;99.90;;;;;;5032223;28;20044;-82
2023/08/06 01:43:48;;;;;;;27.80;16.98;;;21.20;99.90;;;;;;5034457;28;20026;-82
2023/08/06 01:46:14;;;;;;;25.33;16.52;;;21.20;99.90;;;;;;5035369;28;20482;-82
2023/08/06 01:48:40;;;;;;;22.70;17.25;;;21.20;99.90;;;;;;5032263;28;20063;-81
2023/08/06 01:51:06;;;;;;;16.42;14.48;;;21.20;99.90;;;;;;5032025;28;20041;-81
2023/08/06 01:53:32;;;;;;;20.45;16.05;;;21.10;99.90;;;;;;5035166;28;20025;-80
2023/08/06 01:55:58;;;;;;;31.95;18.70;;;21.10;99.90;;;;;;5044330;28;20029;-82
2023/08/06 01:58:24;;;;;;;27.10;16.85;;;21.20;99.90;;;;;;5050729;28;20087;-82
2023/08/06 02:00:49;;;;;;;21.42;17.67;;;21.10;99.90;;;;;;5050500;28;20017;-83
2023/08/06 02:03:15;;;;;;;30.67;20.42;;;21.10;99.90;;;;;;5050894;28;20041;-83
2023/08/06 02:05:41;;;;;;;28.48;21.23;;;21.00;99.90;;;;;;5051929;28;20071;-83
2023/08/06 02:08:06;;;;;;;25.63;20.35;;;21.00;99.90;;;;;;5051714;28;20067;-82
2023/08/06 02:10:32;;;;;;;35.20;23.67;;;21.00;99.90;;;;;;5051725;28;20087;-83
2023/08/06 02:12:58;;;;;;;32.47;25.98;;;20.90;99.90;;;;;;5050406;28;20053;-82
2023/08/06 02:15:23;;;;;;;34.30;24.42;;;20.90;99.90;;;;;;5051854;28;20035;-82
2023/08/06 02:17:49;;;;;;;34.63;25.55;;;20.80;99.90;;;;;;5050375;28;20025;-83
2023/08/06 02:20:15;;;;;;;25.88;21.63;;;20.80;99.90;;;;;;5044062;28;20032;-81
2023/08/06 02:22:40;;;;;;;22.92;18.45;;;20.80;99.90;;;;;;5030094;28;20025;-82
2023/08/06 02:25:06;;;;;;;18.83;16.33;;;20.80;99.90;;;;;;5044225;28;20029;-82
2023/08/06 02:27:32;;;;;;;28.67;20.10;;;20.70;99.90;;;;;;5032142;28;20056;-82
2023/08/06 02:29:57;;;;;;;15.25;11.88;;;20.70;99.90;;;;;;5029261;28;20051;-82
2023/08/06 02:32:23;;;;;;;9.48;8.45;;;20.60;99.90;;;;;;5029690;28;20041;-82
2023/08/06 02:34:49;;;;;;;11.95;8.57;;;20.50;99.90;;;;;;5031089;28;20025;-82
2023/08/06 02:37:14;;;;;;;10.82;7.43;;;20.50;99.90;;;;;;5031499;28;20018;-82
2023/08/06 02:39:40;;;;;;;6.20;3.22;;;20.40;99.90;;;;;;5031159;28;20025;-82
2023/08/06 02:42:09;;;;;;;8.70;3.65;;;20.30;99.90;;;;;;5030554;28;20109;-82
2023/08/06 02:44:35;;;;;;;7.80;3.20;;;20.20;99.90;;;;;;5029533;28;20029;-83
2023/08/06 02:47:01;;;;;;;10.50;2.55;;;20.10;99.90;;;;;;5027955;28;20044;-82
2023/08/06 02:49:27;;;;;;;6.00;2.30;;;19.90;99.90;;;;;;5028036;28;20025;-83
2023/08/06 02:51:53;;;;;;;4.97;2.35;;;19.90;99.90;;;;;;5029101;28;20705;-83
2023/08/06 02:54:19;;;;;;;7.78;3.47;;;19.80;99.90;;;;;;5028557;28;20017;-83
2023/08/06 02:56:46;;;;;;;4.20;2.90;;;19.70;99.90;;;;;;5029297;28;20029;-83
2023/08/06 02:59:12;;;;;;;5.18;2.83;;;19.60;99.90;;;;;;5030922;28;20096;-82
2023/08/06 03:01:38;;;;;;;3.28;2.53;;;19.60;99.90;;;;;;5029242;28;20120;-81
2023/08/06 03:04:04;;;;;;;3.35;2.22;;;19.60;99.90;;;;;;5030578;28;20123;-83
2023/08/06 03:06:29;;;;;;;8.05;3.60;;;19.60;99.90;;;;;;5030617;28;20026;-83
2023/08/06 03:08:55;;;;;;;7.40;3.22;;;19.50;99.90;;;;;;5029275;28;20029;-82
2023/08/06 03:11:21;;;;;;;8.00;3.20;;;19.50;99.90;;;;;;5028896;28;20041;-81
2023/08/06 03:13:47;;;;;;;9.27;3.30;;;19.50;99.90;;;;;;5030359;28;20045;-83
2023/08/06 03:16:13;;;;;;;3.88;2.67;;;19.50;99.90;;;;;;5030088;28;20040;-80
2023/08/06 03:18:39;;;;;;;3.88;2.88;;;19.50;99.90;;;;;;5028930;28;20021;-82
2023/08/06 03:21:04;;;;;;;5.15;3.00;;;19.50;99.90;;;;;;5030363;28;20044;-81
2023/08/06 03:23:30;;;;;;;5.25;3.28;;;19.50;99.90;;;;;;5029901;28;20029;-83
2023/08/06 03:25:56;;;;;;;6.75;2.67;;;19.50;99.90;;;;;;5028826;28;20414;-83
2023/08/06 03:28:22;;;;;;;4.43;2.65;;;19.50;99.90;;;;;;5030060;28;20029;-83
2023/08/06 03:30:48;;;;;;;7.10;2.63;;;19.50;99.90;;;;;;5030027;28;20116;-83
2023/08/06 03:33:14;;;;;;;4.30;2.00;;;19.50;99.90;;;;;;5028962;28;20470;-82
2023/08/06 03:35:39;;;;;;;4.07;2.40;;;19.40;99.90;;;;;;5028516;28;20031;-83
2023/08/06 03:38:05;;;;;;;2.15;1.77;;;19.30;99.90;;;;;;5028816;28;20472;-81
2023/08/06 03:40:31;;;;;;;4.50;2.15;;;19.30;99.90;;;;;;5028859;28;20079;-82
2023/08/06 03:42:56;;;;;;;3.67;2.35;;;19.30;99.90;;;;;;5029963;28;20468;-83
2023/08/06 03:45:22;;;;;;;3.60;2.40;;;19.30;99.90;;;;;;5029308;28;20030;-82
2023/08/06 03:47:48;;;;;;;4.93;2.42;;;19.20;99.90;;;;;;5030062;28;20105;-82
2023/08/06 03:50:13;;;;;;;9.00;2.05;;;19.20;99.90;;;;;;5029860;28;20037;-81
2023/08/06 03:52:39;;;;;;;3.22;1.92;;;19.20;99.90;;;;;;5028628;28;20033;-82
2023/08/06 03:55:05;;;;;;;4.80;2.28;;;19.20;99.90;;;;;;5030015;28;20091;-83
2023/08/06 03:57:31;;;;;;;3.38;2.35;;;19.20;99.90;;;;;;5029823;28;20488;-83
2023/08/06 03:59:56;;;;;;;6.88;2.53;;;19.20;99.90;;;;;;5028513;28;20053;-83
2023/08/06 04:02:22;;;;;;;3.78;1.67;;;19.20;99.90;;;;;;5028138;28;20171;-83
2023/08/06 04:04:48;;;;;;;8.52;3.47;;;19.20;99.90;;;;;;5028010;28;20068;-83
2023/08/06 04:07:14;;;;;;;3.58;2.10;;;19.20;99.90;;;;;;5028454;28;20034;-83
2023/08/06 04:09:58;;;;;;;3.42;2.30;;;19.30;99.90;;;;;;5029950;28;20034;-81
2023/08/06 04:12:24;;;;;;;3.15;1.92;;;19.30;99.90;;;;;;5029754;28;20076;-82
2023/08/06 04:14:54;;;;;;;4.63;1.90;;;19.30;99.90;;;;;;5030105;28;20014;-81
2023/08/06 04:17:20;;;;;;;5.20;2.35;;;19.30;99.90;;;;;;5028416;28;20033;-82
2023/08/06 04:19:51;;;;;;;3.90;2.25;;;19.30;99.90;;;;;;5029384;28;20540;-83
2023/08/06 04:22:17;;;;;;;5.05;2.08;;;19.30;99.90;;;;;;5028255;28;20036;-83
2023/08/06 04:24:43;;;;;;;6.57;1.92;;;19.30;99.90;;;;;;5029749;28;20033;-83
2023/08/06 04:27:13;;;;;;;2.00;1.20;;;19.20;99.90;;;;;;5029499;28;20029;-82
2023/08/06 04:29:39;;;;;;;2.58;1.60;;;19.20;99.90;;;;;;5028164;28;20155;-82
2023/08/06 04:32:07;;;;;;;2.80;1.65;;;19.20;99.90;;;;;;5028126;28;20048;-82
2023/08/06 04:34:32;;;;;;;2.55;1.00;;;19.10;99.90;;;;;;5028229;28;20406;-82
2023/08/06 04:36:59;;;;;;;2.33;1.10;;;19.10;99.90;;;;;;5028295;28;20029;-84
2023/08/06 04:39:25;;;;;;;2.13;1.40;;;18.90;99.90;;;;;;5029283;28;20096;-83
2023/08/06 04:41:51;;;;;;;1.67;1.15;;;19.00;99.90;;;;;;5029275;28;20121;-83
2023/08/06 04:44:16;;;;;;;2.45;1.10;;;18.90;99.90;;;;;;5029430;28;20122;-83
2023/08/06 04:46:42;;;;;;;1.75;1.05;;;18.90;99.90;;;;;;5029314;28;20033;-82
2023/08/06 04:49:08;;;;;;;3.08;1.60;;;18.90;99.90;;;;;;5028140;28;20036;-83
2023/08/06 04:51:33;;;;;;;1.73;1.00;;;19.00;99.90;;;;;;5029055;28;20038;-83
2023/08/06 04:53:59;;;;;;;1.38;0.70;;;19.00;99.90;;;;;;5029242;28;20036;-83
2023/08/06 04:56:25;;;;;;;8.60;0.88;;;19.00;99.90;;;;;;5027931;28;20033;-82
2023/08/06 04:58:51;;;;;;;1.33;0.85;;;19.00;99.90;;;;;;5033024;28;20017;-83
2023/08/06 05:01:17;;;;;;;1.67;1.00;;;19.00;99.90;;;;;;5031409;28;20409;-81
2023/08/06 05:03:42;;;;;;;2.85;1.63;;;19.00;99.90;;;;;;5032588;28;20029;-83
2023/08/06 05:06:08;;;;;;;2.83;1.80;;;19.00;99.90;;;;;;5031371;28;20064;-82
2023/08/06 05:08:34;;;;;;;2.83;1.77;;;18.90;99.90;;;;;;5032792;28;20025;-82
2023/08/06 05:10:59;;;;;;;5.03;2.00;;;18.90;99.90;;;;;;5032722;28;20033;-83
2023/08/06 05:13:25;;;;;;;3.10;1.90;;;18.80;99.90;;;;;;5031343;28;20144;-82
2023/08/06 05:15:53;;;;;;;4.43;2.10;;;18.80;99.90;;;;;;5032666;28;20029;-82
2023/08/06 05:18:19;;;;;;;5.75;2.05;;;18.70;99.90;;;;;;5031294;28;20371;-82
2023/08/06 05:20:44;;;;;;;3.03;2.28;;;18.80;99.90;;;;;;5030843;28;20033;-83
2023/08/06 05:23:10;;;;;;;4.47;2.47;;;18.80;99.90;;;;;;5032410;28;20030;-82
2023/08/06 05:25:36;;;;;;;3.13;2.15;;;18.80;99.90;;;;;;5032254;28;20500;-82
2023/08/06 05:28:02;;;;;;;3.72;2.20;;;18.80;99.90;;;;;;5030638;28;20030;-83
2023/08/06 05:33:12;;;;;;;3.92;2.30;;;18.80;99.90;;;;;;5032764;28;20533;-82
2023/08/06 05:35:38;;;;;;;3.03;2.50;;;18.80;99.90;;;;;;5030967;28;20026;-83
2023/08/06 05:38:04;;;;;;;4.07;2.38;;;18.80;99.90;;;;;;5032105;28;20108;-83
2023/08/06 05:40:29;;;;;;;5.18;2.70;;;18.90;99.90;;;;;;5030766;28;20029;-83
2023/08/06 05:42:55;;;;;;;3.78;2.67;;;18.90;99.90;;;;;;5031818;28;20044;-82
2023/08/06 05:45:21;;;;;;;3.85;2.65;;;18.90;99.90;;;;;;5031985;28;20025;-83
2023/08/06 05:47:48;;;;;;;4.70;3.13;;;18.90;99.90;;;;;;5030662;28;20025;-81
2023/08/06 05:50:14;;;;;;;3.30;2.67;;;19.00;99.90;;;;;;5032139;28;20071;-80
2023/08/06 05:52:39;;;;;;;3.13;2.13;;;19.00;99.90;;;;;;5031570;28;20038;-81
2023/08/06 05:55:05;;;;;;;4.25;2.70;;;19.10;99.90;;;;;;5031775;28;20033;-82
2023/08/06 05:57:31;;;;;;;3.00;2.28;;;19.10;99.90;;;;;;5031508;28;20452;-82
2023/08/06 05:59:57;;;;;;;4.28;2.70;;;19.20;99.90;;;;;;5031575;28;20018;-81
2023/08/06 06:02:22;;;;;;;3.95;3.05;;;19.20;99.90;;;;;;5031721;28;20151;-81
2023/08/06 06:04:48;;;;;;;5.78;3.08;;;19.30;99.90;;;;;;5030103;28;20120;-82
2023/08/06 06:07:14;;;;;;;5.35;3.42;;;19.30;99.90;;;;;;5031501;28;20481;-82
2023/08/06 06:09:40;;;;;;;3.00;2.25;;;19.30;99.90;;;;;;5030851;28;20025;-82
2023/08/06 06:12:06;;;;;;;3.63;2.85;;;19.30;99.90;;;;;;5031111;28;20068;-82
2023/08/06 06:14:31;;;;;;;3.78;2.20;;;19.30;99.90;;;;;;5031414;28;20506;-82
2023/08/06 06:17:02;;;;;;;3.15;2.45;;;19.40;99.90;;;;;;5031034;28;20100;-82
2023/08/06 06:19:27;;;;;;;3.40;2.67;;;19.40;99.90;;;;;;5029865;28;20025;-82
2023/08/06 06:21:53;;;;;;;6.80;3.55;;;19.40;99.90;;;;;;5029934;28;20498;-81
2023/08/06 06:24:20;;;;;;;2.83;2.03;;;19.40;99.90;;;;;;5031101;28;20049;-81
2023/08/06 06:26:45;;;;;;;8.48;2.30;;;19.40;99.90;;;;;;5029700;28;20529;-82
2023/08/06 06:29:11;;;;;;;2.70;2.30;;;19.50;99.90;;;;;;5031164;28;20115;-83
2023/08/06 06:31:37;;;;;;;3.20;2.67;;;19.40;99.90;;;;;;5030983;28;20091;-82
2023/08/06 06:34:02;;;;;;;2.55;1.88;;;19.50;99.90;;;;;;5031278;28;20441;-83
2023/08/06 06:36:28;;;;;;;3.63;2.00;;;19.60;99.90;;;;;;5031113;28;20025;-80
2023/08/06 06:38:53;;;;;;;2.60;2.08;;;19.70;99.90;;;;;;5030966;28;20028;-82
2023/08/06 06:41:19;;;;;;;2.65;2.00;;;19.60;99.90;;;;;;5030872;28;20037;-82
2023/08/06 06:43:45;;;;;;;5.93;2.15;;;19.60;99.90;;;;;;5030710;28;20387;-82
2023/08/06 06:46:10;;;;;;;3.08;2.05;;;19.60;99.90;;;;;;5030447;28;20029;-82
2023/08/06 06:48:36;;;;;;;6.75;2.10;;;19.50;99.90;;;;;;5030649;28;20025;-82
2023/08/06 06:51:02;;;;;;;2.25;1.48;;;19.50;99.90;;;;;;5030701;28;20025;-81
2023/08/06 06:53:28;;;;;;;2.28;1.40;;;19.50;99.90;;;;;;5030729;28;20040;-82
2023/08/06 06:55:55;;;;;;;2.78;1.33;;;19.50;99.90;;;;;;5029465;28;20037;-82
2023/08/06 06:58:20;;;;;;;1.45;0.88;;;19.50;99.90;;;;;;5029401;28;20045;-82
2023/08/06 07:00:47;;;;;;;2.53;1.05;;;19.50;99.90;;;;;;5030426;28;20160;-82
2023/08/06 07:03:14;;;;;;;1.90;1.38;;;19.40;99.90;;;;;;5030790;28;20025;-82
2023/08/06 07:05:40;;;;;;;2.13;1.42;;;19.30;99.90;;;;;;5030741;28;20060;-82
2023/08/06 07:08:05;;;;;;;1.85;1.35;;;19.30;99.90;;;;;;5029243;28;20057;-82
2023/08/06 07:10:31;;;;;;;2.85;1.58;;;19.40;99.90;;;;;;5030256;28;20112;-83
2023/08/06 07:12:56;;;;;;;2.30;1.50;;;19.40;99.90;;;;;;5028558;28;20056;-81
2023/08/06 07:15:22;;;;;;;2.72;1.90;;;19.40;99.90;;;;;;5030195;28;20029;-82
2023/08/06 07:17:48;;;;;;;4.32;2.08;;;19.50;99.90;;;;;;5028789;28;20490;-80
2023/08/06 07:20:13;;;;;;;6.53;1.98;;;19.50;99.90;;;;;;5028069;28;20021;-82
2023/08/06 07:22:39;;;;;;;3.88;2.60;;;19.60;99.90;;;;;;5030109;28;20033;-82
2023/08/06 07:25:05;;;;;;;3.83;2.90;;;19.60;99.90;;;;;;5028692;28;20030;-81
2023/08/06 07:27:31;;;;;;;3.90;2.60;;;19.50;99.90;;;;;;5029077;28;20060;-82
2023/08/06 07:29:58;;;;;;;5.18;3.03;;;19.50;99.90;;;;;;5028836;28;20029;-82
2023/08/06 07:32:24;;;;;;;3.15;2.25;;;19.40;99.90;;;;;;5028983;28;20037;-82
2023/08/06 07:34:49;;;;;;;2.38;1.75;;;19.40;99.90;;;;;;5029773;28;20418;-82
2023/08/06 07:37:15;;;;;;;2.80;1.67;;;19.30;99.90;;;;;;5030250;28;20552;-83
2023/08/06 07:39:42;;;;;;;8.30;1.20;;;19.40;99.90;;;;;;5029503;28;20030;-79
2023/08/06 07:42:08;;;;;;;2.72;1.40;;;19.30;99.90;;;;;;5029802;28;20114;-80
2023/08/06 07:44:33;;;;;;;2.10;0.80;;;19.40;99.90;;;;;;5028240;28;20056;-80
2023/08/06 07:46:59;;;;;;;1.23;0.80;;;19.30;99.90;;;;;;5029736;28;20064;-81
2023/08/06 07:49:25;;;;;;;5.75;0.82;;;19.10;99.90;;;;;;5029416;28;20554;-82
2023/08/06 07:51:51;;;;;;;2.80;1.00;;;19.10;99.90;;;;;;5029483;28;20042;-82
2023/08/06 07:54:17;;;;;;;1.42;0.80;;;19.00;99.90;;;;;;5029182;28;20030;-80
2023/08/06 07:56:43;;;;;;;2.42;1.08;;;19.00;99.90;;;;;;5029652;28;20032;-81
2023/08/06 07:59:09;;;;;;;1.70;0.80;;;18.90;99.90;;;;;;5028498;28;20056;-81
2023/08/06 08:01:34;;;;;;;1.52;0.80;;;18.90;99.90;;;;;;5029833;28;20527;-81
2023/08/06 08:04:00;;;;;;;1.08;0.75;;;18.90;99.90;;;;;;5029469;28;20109;-82
2023/08/06 08:06:26;;;;;;;0.85;0.52;;;18.90;99.90;;;;;;5028262;28;20029;-82
2023/08/06 08:08:52;;;;;;;1.73;0.80;;;18.90;99.90;;;;;;5028572;28;20033;-82
2023/08/06 08:11:18;;;;;;;1.40;0.60;;;19.10;99.90;;;;;;5028243;28;20045;-81
2023/08/06 08:13:44;;;;;;;1.58;0.73;;;19.20;99.90;;;;;;5029527;28;20041;-82
2023/08/06 08:16:10;;;;;;;1.65;0.70;;;19.30;99.90;;;;;;5029166;28;20037;-83
2023/08/06 08:18:36;;;;;;;0.98;0.60;;;19.30;99.90;;;;;;5029549;28;20037;-81
2023/08/06 08:21:01;;;;;;;0.95;0.55;;;19.40;99.90;;;;;;5028941;28;20033;-82
2023/08/06 08:23:27;;;;;;;1.15;0.50;;;19.40;99.90;;;;;;5027985;28;20400;-82
2023/08/06 08:25:53;;;;;;;1.25;0.40;;;19.40;99.90;;;;;;5029538;28;20025;-81
2023/08/06 08:28:19;;;;;;;1.17;0.50;;;19.40;99.90;;;;;;5029832;28;20029;-82
2023/08/06 08:30:44;;;;;;;0.80;0.60;;;19.30;99.90;;;;;;5028225;28;20073;-82
2023/08/06 08:33:10;;;;;;;1.02;0.40;;;19.30;99.90;;;;;;5031069;28;20068;-80
2023/08/06 08:35:37;;;;;;;1.05;0.40;;;19.20;99.90;;;;;;5031844;28;20061;-82
2023/08/06 08:38:03;;;;;;;1.33;0.80;;;19.20;99.90;;;;;;5032218;28;20025;-82
2023/08/06 08:40:32;;;;;;;1.15;0.40;;;19.10;99.90;;;;;;5031987;28;20029;-82
2023/08/06 08:42:59;;;;;;;0.40;0.30;;;19.10;99.90;;;;;;5031989;28;20383;-82
2023/08/06 08:45:28;;;;;;;0.47;0.30;;;19.10;99.90;;;;;;5031925;28;20033;-83
2023/08/06 08:47:54;;;;;;;1.58;0.30;;;19.10;99.90;;;;;;5033053;28;20056;-82
2023/08/06 08:50:21;;;;;;;0.40;0.30;;;19.20;99.90;;;;;;5031505;28;20061;-81
2023/08/06 08:52:48;;;;;;;1.10;0.38;;;19.20;99.90;;;;;;5032534;28;20021;-83
2023/08/06 08:55:15;;;;;;;1.20;0.45;;;19.20;99.90;;;;;;5031491;28;20022;-83
2023/08/06 08:57:41;;;;;;;1.95;0.40;;;19.20;99.90;;;;;;5032600;28;20536;-83
2023/08/06 09:00:07;;;;;;;1.05;0.45;;;19.30;99.90;;;;;;5031593;28;20053;-82
2023/08/06 09:02:33;;;;;;;3.15;0.30;;;19.60;99.90;;;;;;5032574;28;20022;-81
2023/08/06 09:05:02;;;;;;;0.90;0.35;;;20.00;99.90;;;;;;5030885;28;20030;-80
2023/08/06 09:07:34;;;;;;;0.68;0.30;;;20.40;99.90;;;;;;5031382;28;20563;-80
2023/08/06 09:10:03;;;;;;;1.75;0.40;;;20.60;99.90;;;;;;5031022;28;20053;-81
2023/08/06 09:12:29;;;;;;;1.63;0.20;;;20.70;99.90;;;;;;5032512;28;20144;-82
2023/08/06 09:14:55;;;;;;;4.47;0.40;;;20.60;99.90;;;;;;5030921;28;20120;-82
2023/08/06 09:17:21;;;;;;;2.20;0.20;;;20.50;99.90;;;;;;5032543;28;20028;-82
2023/08/06 09:19:48;;;;;;;0.98;0.28;;;20.50;99.90;;;;;;5031133;28;20021;-81
2023/08/06 09:22:14;;;;;;;0.25;0.20;;;20.30;99.90;;;;;;5032809;28;20095;-81
2023/08/06 09:24:41;;;;;;;0.65;0.22;;;20.10;99.90;;;;;;5030760;28;20574;-81
2023/08/06 09:27:14;;;;;;;0.75;0.50;;;20.00;99.90;;;;;;5031903;28;20038;-83
2023/08/06 09:29:42;;;;;;;1.33;0.30;;;19.80;99.90;;;;;;5031901;28;20045;-82
2023/08/06 09:32:07;;;;;;;0.55;0.28;;;19.60;99.90;;;;;;5031789;28;20112;-79
2023/08/06 09:34:33;;;;;;;1.48;0.30;;;19.50;99.90;;;;;;5031837;28;20112;-81
2023/08/06 09:36:58;;;;;;;0.20;0.20;;;19.50;99.90;;;;;;5032178;28;20029;-81
2023/08/06 09:39:29;;;;;;;3.65;0.40;;;19.50;99.90;;;;;;5032083;28;20033;-81
2023/08/06 09:41:59;;;;;;;0.28;0.20;;;19.40;99.90;;;;;;5030430;28;20037;-81
2023/08/06 09:44:26;;;;;;;0.60;0.20;;;19.30;99.90;;;;;;5030728;28;20038;-82
2023/08/06 09:47:01;;;;;;;0.65;0.25;;;19.10;99.90;;;;;;5030128;28;20479;-79
2023/08/06 09:49:46;;;;;;;0.30;0.30;;;18.80;99.90;;;;;;5030190;28;20052;-81
2023/08/06 09:52:13;;;;;;;2.37;0.27;;;18.70;99.90;;;;;;5031442;28;20114;-81
2023/08/06 09:54:39;;;;;;;1.13;0.10;;;18.60;99.90;;;;;;5030130;28;20279;-83
2023/08/06 09:57:05;;;;;;;0.50;0.20;;;18.60;99.90;;;;;;5031404;28;20788;-80
2023/08/06 09:59:33;;;;;;;0.93;0.40;;;18.50;99.90;;;;;;5031814;28;20037;-83
2023/08/06 10:01:59;;;;;;;0.10;0.10;;;18.50;99.90;;;;;;5031258;28;20386;-82
2023/08/06 10:04:25;;;;;;;1.08;0.20;;;18.60;99.90;;;;;;5031480;28;20618;-83
2023/08/06 10:06:53;;;;;;;1.08;0.13;;;18.60;99.90;;;;;;5029958;28;20041;-80
2023/08/06 10:09:19;;;;;;;5.50;0.20;;;18.70;99.90;;;;;;5029790;28;20569;-83
2023/08/06 10:11:52;;;;;;;0.35;0.10;;;18.90;99.90;;;;;;5030895;28;20110;-83
2023/08/06 10:14:30;;;;;;;1.17;0.15;;;19.00;99.90;;;;;;5030871;28;20319;-80
2023/08/06 10:16:58;;;;;;;0.10;0.10;;;19.00;99.90;;;;;;5031391;28;20018;-81
2023/08/06 10:19:24;;;;;;;0.88;0.10;;;19.10;99.90;;;;;;5029624;28;20028;-82
2023/08/06 10:22:10;;;;;;;0.20;0.10;;;19.20;99.90;;;;;;5029920;28;20033;-80
2023/08/06 10:24:57;;;;;;;2.28;0.20;;;19.40;99.90;;;;;;5031430;28;20033;-82
2023/08/06 10:27:33;;;;;;;0.43;0.10;;;19.50;99.90;;;;;;5030223;28;20028;-82
2023/08/06 10:30:28;;;;;;;0.55;0.17;;;19.50;99.90;;;;;;5029766;28;20517;-83
2023/08/06 10:33:00;;;;;;;1.75;0.10;;;19.50;99.90;;;;;;5029296;28;20041;-79
2023/08/06 10:35:34;;;;;;;0.13;0.10;;;19.40;99.90;;;;;;5031057;28;20029;-82
2023/08/06 10:38:03;;;;;;;0.47;0.10;;;19.40;99.90;;;;;;5029607;28;20538;-82
2023/08/06 10:40:30;;;;;;;0.50;0.10;;;19.30;99.90;;;;;;5029438;28;20028;-78
2023/08/06 10:42:59;;;;;;;0.10;0.10;;;19.10;99.90;;;;;;5030905;28;20025;-81
2023/08/06 10:45:28;;;;;;;3.78;0.10;;;19.10;99.90;;;;;;5030627;28;20048;-79
2023/08/06 10:47:54;;;;;;;0.22;0.10;;;19.00;99.90;;;;;;5029414;28;20108;-83
2023/08/06 10:50:20;;;;;;;0.93;0.20;;;19.10;99.90;;;;;;5028715;28;20017;-82
2023/08/06 10:52:47;;;;;;;0.20;0.15;;;19.30;99.90;;;;;;5028963;28;20037;-81
2023/08/06 10:55:23;;;;;;;1.75;0.10;;;19.50;99.90;;;;;;5030170;28;20017;-80
2023/08/06 10:57:49;;;;;;;1.20;0.10;;;19.70;99.90;;;;;;5030453;28;20068;-79
2023/08/06 11:00:16;;;;;;;0.20;0.20;;;19.90;99.90;;;;;;5030286;28;20483;-79
2023/08/06 11:02:42;;;;;;;0.10;0.10;;;20.00;99.90;;;;;;5030135;28;20029;-79
2023/08/06 11:05:09;;;;;;;0.55;0.20;;;20.20;99.90;;;;;;5029006;28;20033;-81
2023/08/06 11:07:35;;;;;;;1.35;0.20;;;20.30;99.90;;;;;;5030411;28;20036;-82
2023/08/06 11:10:06;;;;;;;0.75;0.20;;;20.30;99.90;;;;;;5028670;28;20026;-80
2023/08/06 11:12:32;;;;;;;0.10;0.10;;;20.20;99.90;;;;;;5028619;28;20480;-82
2023/08/06 11:14:58;;;;;;;0.20;0.10;;;20.00;99.90;;;;;;5028807;28;20034;-80
2023/08/06 11:17:25;;;;;;;0.20;0.20;;;19.90;99.90;;;;;;5029658;28;20040;-80
2023/08/06 11:19:52;;;;;;;3.92;0.20;;;19.70;99.90;;;;;;5028675;28;20459;-81
2023/08/06 11:22:18;;;;;;;6.32;0.20;;;19.50;99.90;;;;;;5029816;28;20048;-81
2023/08/06 11:24:44;;;;;;;0.30;0.20;;;19.40;99.90;;;;;;5030096;28;20387;-80
2023/08/06 11:27:13;;;;;;;0.30;0.25;;;19.30;99.90;;;;;;5028764;28;20033;-82
2023/08/06 11:29:43;;;;;;;3.83;0.20;;;19.20;99.90;;;;;;5029866;28;20053;-82
2023/08/06 11:32:09;;;;;;;0.17;0.17;;;19.20;99.90;;;;;;5029548;28;20033;-80
2023/08/06 11:34:36;;;;;;;0.55;0.10;;;19.30;99.90;;;;;;5030553;28;20037;-83
2023/08/06 11:37:05;;;;;;;0.30;0.10;;;19.30;99.90;;;;;;5028478;28;20113;-83
2023/08/06 11:39:33;;;;;;;0.20;0.15;;;19.20;99.90;;;;;;5029632;28;20032;-83
2023/08/06 11:42:02;;;;;;;0.10;0.10;;;19.20;99.90;;;;;;5028279;28;20029;-81
2023/08/06 11:44:31;;;;;;;0.17;0.10;;;19.30;99.90;;;;;;5030111;28;20107;-79
2023/08/06 11:46:59;;;;;;;3.08;0.10;;;19.40;99.90;;;;;;5028612;28;20080;-82
2023/08/06 11:49:57;;;;;;;0.20;0.20;;;19.40;99.90;;;;;;5029578;28;20504;-83
2023/08/06 11:52:25;;;;;;;0.22;0.10;;;19.40;99.90;;;;;;5017335;28;20052;-81
2023/08/06 11:55:06;;;;;;;0.20;0.13;;;19.30;99.90;;;;;;5028486;28;20032;-83
2023/08/06 11:57:34;;;;;;;0.10;0.10;;;19.20;99.90;;;;;;5029601;28;20053;-83
2023/08/06 12:00:09;;;;;;;0.40;0.10;;;19.00;99.90;;;;;;5029593;28;20071;-82
2023/08/06 12:02:36;;;;;;;1.38;0.20;;;19.00;99.90;;;;;;5030016;28;20034;-83
2023/08/06 12:05:11;;;;;;;2.83;0.20;;;18.90;99.90;;;;;;5028008;28;20025;-83
2023/08/06 12:07:39;;;;;;;1.00;0.20;;;18.80;99.90;;;;;;5030244;28;20037;-83
2023/08/06 12:10:05;;;;;;;0.10;0.10;;;18.70;99.90;;;;;;5033757;28;20037;-81
2023/08/06 12:12:31;;;;;;;0.10;0.10;;;18.70;99.90;;;;;;5033281;28;20049;-82
2023/08/06 12:14:57;;;;;;;2.25;0.40;;;18.70;99.90;;;;;;5032202;28;20410;-83
2023/08/06 12:17:26;;;;;;;0.75;0.20;;;18.70;99.90;;;;;;5034077;28;20033;-83
2023/08/06 12:19:52;;;;;;;1.70;0.32;;;18.70;99.90;;;;;;5032792;28;20044;-84
2023/08/06 12:22:18;;;;;;;1.60;0.15;;;18.70;99.90;;;;;;5033370;28;20623;-82
2023/08/06 12:24:45;;;;;;;1.95;0.20;;;18.70;99.90;;;;;;5032187;28;20047;-84
2023/08/06 12:27:11;;;;;;;0.30;0.10;;;18.60;99.90;;;;;;5031964;28;20160;-82
2023/08/06 12:29:45;;;;;;;1.95;0.15;;;18.60;99.90;;;;;;5032899;28;20083;-83
2023/08/06 12:32:12;;;;;;;0.85;0.10;;;18.70;99.90;;;;;;5031915;28;20034;-81
2023/08/06 12:34:42;;;;;;;0.10;0.10;;;18.80;99.90;;;;;;5031704;28;20391;-83
2023/08/06 12:37:08;;;;;;;2.33;0.10;;;18.90;99.90;;;;;;5032209;28;20030;-84
2023/08/06 12:39:35;;;;;;;0.75;0.20;;;19.10;99.90;;;;;;5031703;28;20413;-84
2023/08/06 12:42:02;;;;;;;0.20;0.10;;;19.20;99.90;;;;;;5032932;28;20075;-84
2023/08/06 12:44:27;;;;;;;0.20;0.10;;;19.20;99.90;;;;;;5033203;28;20017;-83